This is the latest recevied weather packets stored in our database for station/object S54A-11. If no packets are shown the sender has not sent any weather packets the latest 10 day(s).
| Time | Temp. | Humidity | Pressure | Rain* | Wind** | Luminosity | Snow |
|---|---|---|---|---|---|---|---|
| 1777682631 | 5° C | 49% | 1026.8 hPa | - | - | - | - |
| 1777681731 | 5° C | 49% | 1026.8 hPa | - | - | - | - |
| 1777680831 | 5° C | 49% | 1026.9 hPa | - | - | - | - |
| 1777679931 | 5° C | 48% | 1027 hPa | - | - | - | - |
| 1777679030 | 5.56° C | 49% | 1027 hPa | - | - | - | - |
| 1777678130 | 6.11° C | 47% | 1027.1 hPa | - | - | - | - |
| 1777677230 | 6.67° C | 46% | 1027 hPa | - | - | - | - |
| 1777676330 | 6.67° C | 47% | 1027 hPa | - | - | - | - |
| 1777675430 | 7.22° C | 46% | 1027.1 hPa | - | - | - | - |
| 1777674531 | 7.22° C | 45% | 1027 hPa | - | - | - | - |
| 1777673630 | 7.78° C | 45% | 1027 hPa | - | - | - | - |
| 1777672730 | 8.33° C | 44% | 1027 hPa | - | - | - | - |
| 1777671830 | 8.33° C | 46% | 1027 hPa | - | - | - | - |
| 1777670930 | 8.33° C | 45% | 1027 hPa | - | - | - | - |
| 1777670030 | 8.33° C | 44% | 1027 hPa | - | - | - | - |
| 1777669130 | 8.89° C | 43% | 1026.9 hPa | - | - | - | - |
| 1777668230 | 8.89° C | 42% | 1026.8 hPa | - | - | - | - |
| 1777667330 | 9.44° C | 42% | 1026.6 hPa | - | - | - | - |
| 1777666429 | 10° C | 41% | 1026.5 hPa | - | - | - | - |
| 1777665529 | 10.56° C | 41% | 1026.4 hPa | - | - | - | - |
| 1777664630 | 11.11° C | 40% | 1026.4 hPa | - | - | - | - |
| 1777663729 | 11.67° C | 39% | 1026.1 hPa | - | - | - | - |
| 1777662829 | 12.22° C | 39% | 1025.8 hPa | - | - | - | - |
| 1777661929 | 12.78° C | 39% | 1025.6 hPa | - | - | - | - |
| 1777661029 | 13.89° C | 36% | 1025.2 hPa | - | - | - | - |
* Rain since midnight (hover to see other rain measurements)
** Current wind speed in m/s (hover to see current wind gust speed)